Skip Navigation Links Skip Navigation Links

Current Weather

Corona Muni, Corona, Calif.

For information only: do not use for flight planning or navigation.
Latest weather
Observation time Tuesday, October 19, 2021 1:56 AM PDT
Local time Tuesday, October 19, 2021 2:25 AM PDT
Flight conditions Visual Meteorological Conditions
Winds
Wind speed calm
Visibility 10 mi.
Sky condition
Ceiling unlimited
Sky clear
Temperature 44°F
Dewpoint 41°F
Altimeter 30.01 in.Hg
Pressure change last 3 hours0.00 in.Hg
Pressure falling, then rising
Derived measurements
Relative humidity 89%
Wind chill 44°F
Density altitude -441 ft.
Sea-level pressure 30.00 in.Hg
Remarks
Fully automated report.
Automated weather observing station with precipitation discriminator.
METAR KAJO 190856Z AUTO 00000KT 10SM CLR 07/05 A3001 RMK AO2 SLP159 T00670050 55000

Settings

Location code

InnerDrive.Weather 4.0.6770.0 Release CLR 4.0.30319.42000
Copyright ©2018 Inner Drive Technology. All rights reserved. Portions Copyright ©1986-2018 David Braverman.

Find weather

Site navigation


Skip Navigation Links

Place info

Page info

PayPal - The safer, easier way to pay online!

Return home.

Copyright ©2021 Inner Drive Technology. Purveyors of fine, hand-crafted computer software. Page printed 2021-10-19T09:25:21 UTC.